createdAt,value
2022-11-14T00:00:24.854Z,101112.47
2022-11-14T00:02:27.775Z,101108.88
2022-11-14T00:04:29.938Z,101115.59
2022-11-14T00:06:32.389Z,101115.69
2022-11-14T00:08:34.916Z,101115.72
2022-11-14T00:10:36.627Z,101119.94
2022-11-14T00:12:38.357Z,101113.97
2022-11-14T00:14:40.157Z,101104.56
2022-11-14T00:16:41.961Z,101105.44
2022-11-14T00:18:43.636Z,101096.84
2022-11-14T00:20:48.975Z,101095.97
2022-11-14T00:22:50.800Z,101088.22
2022-11-14T00:24:52.465Z,101085.63
2022-11-14T00:26:54.296Z,101087.31
2022-11-14T00:28:56.021Z,101081.28
2022-11-14T00:30:57.762Z,101076.88
2022-11-14T00:32:59.538Z,101071.69
2022-11-14T00:35:01.195Z,101074.25
2022-11-14T00:37:02.916Z,101069.06
2022-11-14T00:39:05.000Z,101074.22
2022-11-14T00:41:06.768Z,101068.94
2022-11-14T00:43:08.462Z,101075.88
2022-11-14T00:45:11.092Z,101067.22
2022-11-14T00:47:12.821Z,101074.13
2022-11-14T00:49:14.471Z,101077.53
2022-11-14T00:51:16.221Z,101068.88
2022-11-14T00:53:18.119Z,101067.13
2022-11-14T00:55:19.745Z,101060.25
2022-11-14T00:57:21.476Z,101049.84
2022-11-14T00:59:23.145Z,101048.09
2022-11-14T01:01:24.869Z,101049.84
2022-11-14T01:03:26.560Z,101049.78
2022-11-14T01:05:28.459Z,101050.66
2022-11-14T01:07:30.186Z,101046.34
2022-11-14T01:09:32.061Z,101046.41
2022-11-14T01:11:33.845Z,101037.78
2022-11-14T01:13:35.645Z,101037.75
2022-11-14T01:15:48.130Z,101036.03
2022-11-14T01:17:49.775Z,101036.03
2022-11-14T01:19:51.500Z,101032.56
2022-11-14T01:21:53.238Z,101029.19
2022-11-14T01:23:54.918Z,101029.13
2022-11-14T01:26:02.866Z,101027.44
2022-11-14T01:28:15.724Z,101024.91
2022-11-14T01:30:17.584Z,101019.69
2022-11-14T01:32:19.310Z,101017.97
2022-11-14T01:34:20.985Z,101015.44
2022-11-14T01:36:22.666Z,101008.53
2022-11-14T01:38:24.500Z,101010.34
2022-11-14T01:40:27.141Z,100997.47
2022-11-14T01:42:28.821Z,100997.44
2022-11-14T01:44:40.781Z,101006.16
2022-11-14T01:46:46.921Z,101000.19
2022-11-14T01:48:57.257Z,101013.00
2022-11-14T01:51:05.455Z,100999.25
2022-11-14T01:53:07.230Z,100994.97
2022-11-14T01:55:10.386Z,100997.56
2022-11-14T01:57:14.516Z,101001.06
2022-11-14T01:59:22.300Z,100995.81
2022-11-14T02:01:25.957Z,100988.09
2022-11-14T02:03:28.105Z,100987.97
2022-11-14T02:05:31.216Z,100988.00
2022-11-14T02:07:37.320Z,100993.22
2022-11-14T02:09:43.243Z,100993.19
2022-11-14T02:11:46.122Z,100994.03
2022-11-14T02:13:48.029Z,100988.88
2022-11-14T02:15:50.330Z,100989.69
2022-11-14T02:17:52.222Z,100992.28
2022-11-14T02:20:05.793Z,100997.25
2022-11-14T02:22:07.530Z,100992.00
2022-11-14T02:24:11.261Z,100999.66
2022-11-14T02:26:12.955Z,100984.19
2022-11-14T02:28:14.691Z,100978.16
2022-11-14T02:30:20.030Z,100977.16
2022-11-14T02:32:21.691Z,100974.53
2022-11-14T02:34:23.445Z,100976.44
2022-11-14T02:36:25.670Z,100977.28
2022-11-14T02:38:27.653Z,100978.13
2022-11-14T02:40:29.608Z,100975.38
2022-11-14T02:42:31.382Z,100980.56
2022-11-14T02:44:33.201Z,100971.13
2022-11-14T02:46:35.110Z,100973.72
2022-11-14T02:48:36.815Z,100973.72
2022-11-14T02:50:38.540Z,100967.66
2022-11-14T02:52:40.555Z,100965.25
2022-11-14T02:54:42.410Z,100957.53
2022-11-14T02:56:44.464Z,100948.66
2022-11-14T02:58:46.335Z,100955.69
2022-11-14T03:01:13.446Z,100954.06
2022-11-14T03:03:10.054Z,100948.94
2022-11-14T03:05:12.086Z,100954.91
2022-11-14T03:07:13.900Z,100954.00
2022-11-14T03:09:15.803Z,100956.63
2022-11-14T03:11:17.656Z,100954.97
2022-11-14T03:13:19.745Z,100958.38
2022-11-14T03:15:21.605Z,100956.66
2022-11-14T03:17:24.828Z,100948.91
2022-11-14T03:19:26.849Z,100953.13
2022-11-14T03:21:28.927Z,100953.28
2022-11-14T03:23:30.726Z,100947.41
2022-11-14T03:25:32.756Z,100942.09
2022-11-14T03:27:34.607Z,100937.91
2022-11-14T03:29:36.575Z,100931.91
2022-11-14T03:31:38.418Z,100939.50
2022-11-14T03:33:40.439Z,100936.91
2022-11-14T03:35:44.045Z,100930.00
2022-11-14T03:37:46.046Z,100919.78
2022-11-14T03:39:47.815Z,100916.31
2022-11-14T03:41:49.776Z,100922.31
2022-11-14T03:43:51.768Z,100923.16
2022-11-14T03:45:53.630Z,100926.47
2022-11-14T03:47:55.737Z,100918.69
2022-11-14T03:49:57.720Z,100921.41
2022-11-14T03:51:59.455Z,100919.59
2022-11-14T03:54:01.229Z,100918.66
2022-11-14T03:56:03.269Z,100926.28
2022-11-14T03:58:05.187Z,100922.75
2022-11-14T04:00:09.245Z,100916.53
2022-11-14T04:02:11.044Z,100916.63
2022-11-14T04:04:13.504Z,100921.78
2022-11-14T04:06:15.458Z,100916.63
2022-11-14T04:08:17.686Z,100919.13
2022-11-14T04:10:19.846Z,100914.81
2022-11-14T04:12:21.865Z,100910.34
2022-11-14T04:14:23.692Z,100899.19
2022-11-14T04:16:25.705Z,100903.53
2022-11-14T04:18:27.854Z,100901.81
2022-11-14T04:20:29.770Z,100909.50
2022-11-14T04:22:31.456Z,100901.75
2022-11-14T04:24:33.156Z,100899.31
2022-11-14T04:26:34.887Z,100894.16
2022-11-14T04:28:36.616Z,100892.56
2022-11-14T04:30:38.811Z,100889.22
2022-11-14T04:32:40.575Z,100891.00
2022-11-14T04:34:42.313Z,100902.03
2022-11-14T04:36:44.513Z,100906.44
2022-11-14T04:38:46.296Z,100898.59
2022-11-14T04:40:51.109Z,100888.25
2022-11-14T04:42:52.817Z,100879.66
2022-11-14T04:44:54.672Z,100887.41
2022-11-14T04:46:57.233Z,100881.53
2022-11-14T04:48:58.926Z,100873.84
2022-11-14T04:51:00.645Z,100869.28
2022-11-14T04:53:02.461Z,100868.41
2022-11-14T04:55:04.725Z,100869.53
2022-11-14T04:57:06.508Z,100867.88
2022-11-14T04:59:08.336Z,100864.38
2022-11-14T05:01:11.654Z,100857.44
2022-11-14T05:03:13.505Z,100859.03
2022-11-14T05:05:15.616Z,100852.34
2022-11-14T05:07:17.409Z,100850.69
2022-11-14T05:09:19.132Z,100847.31
2022-11-14T05:11:26.583Z,100856.75
2022-11-14T05:13:31.006Z,100855.81
2022-11-14T05:15:32.690Z,100864.44
2022-11-14T05:17:34.362Z,100862.63
2022-11-14T05:19:36.070Z,100853.16
2022-11-14T05:21:37.767Z,100854.06
2022-11-14T05:23:39.471Z,100861.78
2022-11-14T05:25:41.201Z,100854.03
2022-11-14T05:27:42.882Z,100853.94
2022-11-14T05:29:44.586Z,100847.13
2022-11-14T05:31:46.250Z,100847.97
2022-11-14T05:33:48.393Z,100850.53
2022-11-14T05:35:50.441Z,100843.66
2022-11-14T05:37:56.049Z,100845.47
2022-11-14T05:40:00.670Z,100841.06
2022-11-14T05:42:02.452Z,100838.38
2022-11-14T05:44:04.891Z,100835.78
2022-11-14T05:46:11.176Z,100837.47
2022-11-14T05:48:12.877Z,100836.56
2022-11-14T05:50:14.626Z,100834.19
2022-11-14T05:52:16.287Z,100827.38
2022-11-14T05:54:17.991Z,100831.72
2022-11-14T05:56:19.691Z,100824.91
2022-11-14T05:58:22.177Z,100818.72
2022-11-14T06:00:23.890Z,100823.78
2022-11-14T06:02:25.625Z,100824.78
2022-11-14T06:04:27.391Z,100816.91
2022-11-14T06:06:29.087Z,100820.38
2022-11-14T06:08:31.935Z,100819.56
2022-11-14T06:10:35.807Z,100819.56
2022-11-14T06:12:37.446Z,100817.88
2022-11-14T06:14:39.132Z,100817.00
2022-11-14T06:16:40.795Z,100823.94
2022-11-14T06:18:43.223Z,100823.16
2022-11-14T06:20:45.177Z,100819.66
2022-11-14T06:22:47.174Z,100818.81
2022-11-14T06:24:48.876Z,100820.63
2022-11-14T06:26:50.553Z,100814.63
2022-11-14T06:28:53.690Z,100817.25
2022-11-14T06:31:00.033Z,100814.72
2022-11-14T06:33:01.793Z,100819.09
2022-11-14T06:35:03.826Z,100816.50
2022-11-14T06:37:05.807Z,100813.91
2022-11-14T06:39:07.578Z,100823.38
2022-11-14T06:41:15.709Z,100823.38
2022-11-14T06:43:17.363Z,100821.63
2022-11-14T06:45:19.111Z,100827.66
2022-11-14T06:47:20.916Z,100816.47
2022-11-14T06:49:24.957Z,100815.63
2022-11-14T06:51:26.944Z,100816.47
2022-11-14T06:53:31.036Z,100810.38
2022-11-14T06:55:32.927Z,100811.22
2022-11-14T06:57:34.768Z,100808.66
2022-11-14T06:59:36.756Z,100807.81
2022-11-14T07:01:38.556Z,100808.72
2022-11-14T07:03:41.245Z,100809.59
2022-11-14T07:05:43.317Z,100815.66
2022-11-14T07:07:45.318Z,100804.47
2022-11-14T07:09:47.140Z,100811.31
2022-11-14T07:11:48.919Z,100811.31
2022-11-14T07:13:53.679Z,100805.22
2022-11-14T07:15:55.728Z,100799.13
2022-11-14T07:17:59.057Z,100802.56
2022-11-14T07:20:01.025Z,100801.72
2022-11-14T07:22:03.086Z,100797.38
2022-11-14T07:24:05.339Z,100790.50
2022-11-14T07:26:09.885Z,100780.19
2022-11-14T07:28:14.426Z,100775.03
2022-11-14T07:30:18.605Z,100779.34
2022-11-14T07:32:20.445Z,100794.00
2022-11-14T07:34:22.358Z,100799.19
2022-11-14T07:36:24.595Z,100794.97
2022-11-14T07:38:27.017Z,100793.28
2022-11-14T07:40:29.203Z,100793.28
2022-11-14T07:42:31.251Z,100798.44
2022-11-14T07:44:33.038Z,100794.97
2022-11-14T07:46:34.927Z,100800.97
2022-11-14T07:48:36.859Z,100799.19
2022-11-14T07:50:38.829Z,100801.75
2022-11-14T07:52:42.709Z,100796.44
2022-11-14T07:54:44.519Z,100801.63
2022-11-14T07:56:46.427Z,100804.13
2022-11-14T07:58:48.434Z,100800.72
2022-11-14T08:00:50.306Z,100795.56
2022-11-14T08:02:52.279Z,100791.25
2022-11-14T08:04:54.081Z,100789.53
2022-11-14T08:06:56.051Z,100789.56
2022-11-14T08:08:58.054Z,100786.09
2022-11-14T08:11:00.647Z,100793.06
2022-11-14T08:13:30.271Z,100796.56
2022-11-14T08:15:27.850Z,100800.88
2022-11-14T08:17:29.745Z,100802.59
2022-11-14T08:19:34.389Z,100798.31
2022-11-14T08:21:36.768Z,100798.31
2022-11-14T08:23:39.006Z,100791.44
2022-11-14T08:25:41.831Z,100792.31
2022-11-14T08:27:46.867Z,100790.50
2022-11-14T08:29:49.056Z,100785.34
2022-11-14T08:31:53.528Z,100786.13
2022-11-14T08:33:59.363Z,100786.25
2022-11-14T08:36:04.729Z,100782.81
2022-11-14T08:38:06.577Z,100787.09
2022-11-14T08:40:10.987Z,100788.94
2022-11-14T08:42:12.959Z,100786.22
2022-11-14T08:44:14.874Z,100792.28
2022-11-14T08:46:16.757Z,100788.09
2022-11-14T08:48:18.709Z,100796.72
2022-11-14T08:50:20.616Z,100789.88
2022-11-14T08:52:23.207Z,100793.28
2022-11-14T08:54:25.129Z,100795.94
2022-11-14T08:56:26.986Z,100791.72
2022-11-14T08:58:31.592Z,100780.53
2022-11-14T09:00:33.938Z,100784.03
2022-11-14T09:02:35.824Z,100795.22
2022-11-14T09:04:38.462Z,100793.47
2022-11-14T09:06:40.641Z,100790.06
2022-11-14T09:08:43.005Z,100793.34
2022-11-14T09:10:45.557Z,100789.94
2022-11-14T09:12:47.497Z,100777.09
2022-11-14T09:14:49.510Z,100774.47
2022-11-14T09:16:51.615Z,100775.22
2022-11-14T09:18:53.587Z,100773.47
2022-11-14T09:21:02.226Z,100775.97
2022-11-14T09:23:04.890Z,100772.50
2022-11-14T09:25:08.177Z,100780.41
2022-11-14T09:27:09.991Z,100777.09
2022-11-14T09:29:11.926Z,100777.19
2022-11-14T09:31:15.517Z,100774.53
2022-11-14T09:33:17.677Z,100781.34
2022-11-14T09:35:19.656Z,100773.53
2022-11-14T09:37:21.616Z,100777.88
2022-11-14T09:39:23.555Z,100768.44
2022-11-14T09:41:32.256Z,100772.84
2022-11-14T09:43:44.435Z,100769.34
2022-11-14T09:45:51.436Z,100769.38
2022-11-14T09:48:04.404Z,100773.78
2022-11-14T09:50:08.986Z,100772.91
2022-11-14T09:52:29.930Z,100770.22
2022-11-14T09:54:44.247Z,100762.38
2022-11-14T09:56:46.224Z,100765.03
2022-11-14T09:58:48.131Z,100754.59
2022-11-14T10:00:58.659Z,100750.38
2022-11-14T10:03:21.843Z,100756.44
2022-11-14T10:05:38.248Z,100745.44
2022-11-14T10:07:57.001Z,100743.84
2022-11-14T10:10:14.562Z,100740.38
2022-11-14T10:12:23.909Z,100735.25
2022-11-14T10:14:36.984Z,100738.81
2022-11-14T10:16:54.603Z,100737.16
2022-11-14T10:19:02.986Z,100732.00
2022-11-14T10:21:18.447Z,100730.19
2022-11-14T10:23:30.584Z,100728.47
2022-11-14T10:25:44.255Z,100717.25
2022-11-14T10:28:06.260Z,100719.88
2022-11-14T10:30:12.787Z,100720.75
2022-11-14T10:32:21.411Z,100723.34
2022-11-14T10:34:32.957Z,100726.66
2022-11-14T10:36:54.788Z,100723.22
2022-11-14T10:39:11.070Z,100724.97
2022-11-14T10:41:34.488Z,100731.88
2022-11-14T10:43:43.945Z,100723.34
2022-11-14T10:45:52.713Z,100724.19
2022-11-14T10:48:00.652Z,100719.91
2022-11-14T10:50:16.272Z,100725.13
2022-11-14T10:52:22.852Z,100713.84
2022-11-14T10:54:35.145Z,100712.97
2022-11-14T10:56:51.035Z,100706.06
2022-11-14T10:58:52.885Z,100703.53
2022-11-14T11:00:54.945Z,100701.03
2022-11-14T11:02:57.875Z,100702.72
2022-11-14T11:05:14.950Z,100703.66
2022-11-14T11:07:31.923Z,100703.66
2022-11-14T11:09:46.276Z,100702.75
2022-11-14T11:11:59.078Z,100706.16
2022-11-14T11:14:01.748Z,100707.94
2022-11-14T11:16:05.262Z,100698.34
2022-11-14T11:18:32.918Z,100695.13
2022-11-14T11:20:38.830Z,100683.94
2022-11-14T11:22:40.976Z,100678.88
2022-11-14T11:24:44.278Z,100674.56
2022-11-14T11:26:46.225Z,100673.78
2022-11-14T11:29:03.527Z,100672.00
2022-11-14T11:31:08.420Z,100668.56
2022-11-14T11:33:20.445Z,100656.59
2022-11-14T11:35:22.958Z,100654.94
2022-11-14T11:39:42.951Z,100641.28
2022-11-14T11:42:08.771Z,100639.59
2022-11-14T11:44:15.530Z,100630.97
2022-11-14T11:46:26.906Z,100632.75
2022-11-14T11:48:38.069Z,100632.75
2022-11-14T11:50:41.526Z,100637.06
2022-11-14T11:52:43.976Z,100636.22
2022-11-14T11:55:05.297Z,100632.00
2022-11-14T11:57:21.464Z,100634.63
2022-11-14T11:59:38.421Z,100648.44
2022-11-14T12:01:40.479Z,100641.47
2022-11-14T12:03:48.663Z,100637.16
2022-11-14T12:05:58.925Z,100644.94
2022-11-14T12:08:04.796Z,100635.41
2022-11-14T12:10:17.945Z,100641.47
2022-11-14T12:12:49.257Z,100641.53
2022-11-14T12:15:08.860Z,100633.78
2022-11-14T12:17:22.687Z,100634.66
2022-11-14T12:19:47.514Z,100637.22
2022-11-14T12:21:58.906Z,100642.38
2022-11-14T12:24:03.247Z,100641.53
2022-11-14T12:26:24.399Z,100630.28
2022-11-14T12:28:37.378Z,100626.00
2022-11-14T12:30:42.269Z,100622.56
2022-11-14T12:32:53.556Z,100618.25
2022-11-14T12:34:55.931Z,100609.63
2022-11-14T12:36:58.646Z,100611.28
2022-11-14T12:39:02.733Z,100613.06
2022-11-14T12:41:07.785Z,100612.28
2022-11-14T12:43:34.762Z,100608.84
2022-11-14T12:45:41.990Z,100610.56
2022-11-14T12:48:13.567Z,100617.47
2022-11-14T12:50:30.076Z,100616.59
2022-11-14T12:52:42.600Z,100612.28
2022-11-14T12:54:49.539Z,100604.59
2022-11-14T12:57:00.042Z,100604.53
2022-11-14T12:59:19.867Z,100589.81
2022-11-14T13:01:31.661Z,100582.97
2022-11-14T13:03:53.368Z,100586.44
2022-11-14T13:06:05.529Z,100578.63
2022-11-14T13:08:22.466Z,100576.94
2022-11-14T13:10:31.171Z,100577.84
2022-11-14T13:12:44.857Z,100570.09
2022-11-14T13:15:00.829Z,100569.28
2022-11-14T13:17:31.787Z,100554.66
2022-11-14T13:19:42.748Z,100549.53
2022-11-14T13:22:04.608Z,100545.22
2022-11-14T13:24:07.930Z,100535.78
2022-11-14T13:26:10.797Z,100534.09
2022-11-14T13:28:32.045Z,100531.53
2022-11-14T13:30:53.086Z,100531.56
2022-11-14T13:32:56.071Z,100525.53
2022-11-14T13:35:07.337Z,100535.88
2022-11-14T13:37:32.876Z,100533.28
2022-11-14T13:39:54.061Z,100535.00
2022-11-14T13:42:03.351Z,100531.56
2022-11-14T13:44:16.085Z,100536.75
2022-11-14T13:46:30.535Z,100533.28
2022-11-14T13:48:47.323Z,100533.28
2022-11-14T13:50:53.094Z,100528.97
2022-11-14T13:52:55.727Z,100528.09
2022-11-14T13:54:58.957Z,100517.72
2022-11-14T13:57:14.996Z,100525.50
2022-11-14T13:59:26.938Z,100526.38
2022-11-14T14:01:29.918Z,100516.88
2022-11-14T14:03:42.019Z,100520.31
2022-11-14T14:06:01.081Z,100509.97
2022-11-14T14:08:15.681Z,100509.09
2022-11-14T14:10:36.930Z,100509.97
2022-11-14T14:13:01.479Z,100505.63
2022-11-14T14:15:12.679Z,100503.03
2022-11-14T14:17:23.118Z,100497.88
2022-11-14T14:19:44.900Z,100486.66
2022-11-14T14:22:00.689Z,100471.97
2022-11-14T14:24:15.248Z,100467.63
2022-11-14T14:26:25.442Z,100458.13
2022-11-14T14:28:41.617Z,100458.97
2022-11-14T14:31:10.991Z,100458.09
2022-11-14T14:33:15.162Z,100453.75
2022-11-14T14:35:26.318Z,100452.91
2022-11-14T14:37:29.900Z,100447.69
2022-11-14T14:39:31.764Z,100448.53
2022-11-14T14:41:35.116Z,100448.53
2022-11-14T14:43:37.342Z,100442.50
2022-11-14T14:45:51.911Z,100437.31
2022-11-14T14:48:03.426Z,100438.16
2022-11-14T14:50:16.944Z,100431.25
2022-11-14T14:52:21.161Z,100432.09
2022-11-14T14:54:27.234Z,100435.59
2022-11-14T14:56:29.691Z,100434.72
2022-11-14T14:58:34.203Z,100434.69
2022-11-14T15:00:37.060Z,100430.38
2022-11-14T15:02:39.253Z,100424.31
2022-11-14T15:04:41.991Z,100423.44
2022-11-14T15:06:47.326Z,100416.53
2022-11-14T15:08:50.111Z,100420.91
2022-11-14T15:10:56.819Z,100415.75
2022-11-14T15:13:00.098Z,100416.59
2022-11-14T15:15:03.657Z,100415.75
2022-11-14T15:17:06.792Z,100415.75
2022-11-14T15:19:14.188Z,100412.31
2022-11-14T15:21:22.345Z,100411.47
2022-11-14T15:23:24.742Z,100418.38
2022-11-14T15:25:27.361Z,100412.31
2022-11-14T15:27:31.122Z,100404.56
2022-11-14T15:29:33.472Z,100398.53
2022-11-14T15:31:37.190Z,100404.56
2022-11-14T15:33:42.513Z,100402.84
2022-11-14T15:35:44.625Z,100404.56
2022-11-14T15:38:37.074Z,100394.19
2022-11-14T15:40:28.413Z,100398.50
2022-11-14T15:42:31.222Z,100392.50
2022-11-14T15:44:34.931Z,100394.19
2022-11-14T15:46:48.225Z,100384.72
2022-11-14T15:48:50.633Z,100376.97
2022-11-14T15:50:52.951Z,100371.75
2022-11-14T15:53:00.660Z,100373.53
2022-11-14T15:55:04.124Z,100377.81
2022-11-14T15:57:13.501Z,100382.13
2022-11-14T15:59:15.742Z,100380.41
2022-11-14T16:01:24.328Z,100379.56
2022-11-14T16:03:26.674Z,100377.00
2022-11-14T16:05:33.436Z,100376.13
2022-11-14T16:07:38.026Z,100368.38
2022-11-14T16:09:40.928Z,100368.41
2022-11-14T16:11:46.340Z,100370.97
2022-11-14T16:13:51.021Z,100366.69
2022-11-14T16:15:53.519Z,100375.31
2022-11-14T16:17:56.146Z,100382.22
2022-11-14T16:19:59.468Z,100382.22
2022-11-14T16:22:03.264Z,100378.75
2022-11-14T16:24:06.607Z,100373.56
2022-11-14T16:26:09.284Z,100378.75
2022-11-14T16:28:11.536Z,100382.19
2022-11-14T16:30:15.966Z,100372.72
2022-11-14T16:32:18.776Z,100372.72
2022-11-14T16:34:27.068Z,100374.47
2022-11-14T16:36:29.332Z,100380.50
2022-11-14T16:38:31.623Z,100374.47
2022-11-14T16:40:35.110Z,100377.03
2022-11-14T16:42:37.721Z,100383.09
2022-11-14T16:44:42.941Z,100382.22
2022-11-14T16:46:48.996Z,100379.63
2022-11-14T16:48:52.215Z,100382.22
2022-11-14T16:50:56.976Z,100383.06
2022-11-14T16:52:59.635Z,100382.22
2022-11-14T16:55:02.184Z,100375.31
2022-11-14T16:57:04.533Z,100366.69
2022-11-14T16:59:07.469Z,100360.63
2022-11-14T17:01:20.098Z,100374.44
2022-11-14T17:03:23.475Z,100375.28
2022-11-14T17:05:26.276Z,100371.84
2022-11-14T17:07:33.139Z,100373.59
2022-11-14T17:09:35.600Z,100373.56
2022-11-14T17:11:38.031Z,100371.00
2022-11-14T17:13:40.414Z,100371.00
2022-11-14T17:15:42.642Z,100373.59
2022-11-14T17:17:51.129Z,100375.31
2022-11-14T17:19:53.772Z,100383.94
2022-11-14T17:21:56.231Z,100380.50
2022-11-14T17:24:01.811Z,100380.50
2022-11-14T17:26:07.111Z,100382.22
2022-11-14T17:28:09.785Z,100381.38
2022-11-14T17:30:13.272Z,100373.59
2022-11-14T17:32:15.752Z,100380.50
2022-11-14T17:34:18.472Z,100381.38
2022-11-14T17:36:21.728Z,100378.75
2022-11-14T17:38:24.141Z,100380.47
2022-11-14T17:40:26.989Z,100379.59
2022-11-14T17:42:29.543Z,100381.34
2022-11-14T17:44:32.117Z,100381.34
2022-11-14T17:46:35.249Z,100374.44
2022-11-14T17:48:38.762Z,100380.50
2022-11-14T17:50:43.449Z,100381.38
2022-11-14T17:52:46.285Z,100381.34
2022-11-14T17:54:48.954Z,100381.34
2022-11-14T17:56:54.884Z,100383.06
2022-11-14T17:58:58.401Z,100380.50
2022-11-14T18:01:01.681Z,100378.78
2022-11-14T18:03:05.149Z,100381.34
2022-11-14T18:05:08.277Z,100380.50
2022-11-14T18:07:10.796Z,100383.94
2022-11-14T18:09:14.698Z,100376.19
2022-11-14T18:11:18.112Z,100377.03
2022-11-14T18:13:20.439Z,100381.34
2022-11-14T18:15:27.714Z,100377.91
2022-11-14T18:17:32.259Z,100374.44
2022-11-14T18:19:35.297Z,100373.56
2022-11-14T18:21:39.063Z,100374.44
2022-11-14T18:23:45.209Z,100370.13
2022-11-14T18:25:49.863Z,100364.97
2022-11-14T18:27:52.188Z,100364.97
2022-11-14T18:30:03.886Z,100366.66
2022-11-14T18:32:10.734Z,100362.38
2022-11-14T18:34:13.716Z,100359.78
2022-11-14T18:36:16.980Z,100367.53
2022-11-14T18:38:19.635Z,100365.81
2022-11-14T18:40:22.474Z,100366.66
2022-11-14T18:42:25.010Z,100373.56
2022-11-14T18:44:28.974Z,100369.25
2022-11-14T18:46:37.170Z,100362.38
2022-11-14T18:48:43.868Z,100364.09
2022-11-14T18:50:46.224Z,100369.25
2022-11-14T18:52:48.475Z,100364.06
2022-11-14T18:54:50.886Z,100368.41
2022-11-14T18:56:53.278Z,100359.75
2022-11-14T18:58:57.046Z,100357.19
2022-11-14T19:00:59.414Z,100349.41
2022-11-14T19:03:06.039Z,100359.78
2022-11-14T19:05:09.587Z,100358.91
2022-11-14T19:07:12.472Z,100359.78
2022-11-14T19:09:18.623Z,100357.19
2022-11-14T19:11:30.843Z,100355.44
2022-11-14T19:13:34.507Z,100348.53
2022-11-14T19:15:38.389Z,100339.91
2022-11-14T19:17:40.949Z,100346.81
2022-11-14T19:19:43.051Z,100341.66
2022-11-14T19:21:48.272Z,100346.81
2022-11-14T19:23:51.284Z,100344.22
2022-11-14T19:25:58.934Z,100347.66
2022-11-14T19:28:01.019Z,100345.97
2022-11-14T19:30:04.130Z,100354.59
2022-11-14T19:32:07.030Z,100350.25
2022-11-14T19:34:10.399Z,100350.25
2022-11-14T19:36:18.821Z,100345.09
2022-11-14T19:38:29.986Z,100346.81
2022-11-14T19:40:32.371Z,100351.13
2022-11-14T19:42:34.468Z,100345.06
2022-11-14T19:44:36.812Z,100353.69
2022-11-14T19:46:43.005Z,100343.34
2022-11-14T19:48:49.898Z,100343.38
2022-11-14T19:51:01.517Z,100345.06
2022-11-14T19:53:04.729Z,100345.09
2022-11-14T19:55:07.205Z,100353.72
2022-11-14T19:57:09.523Z,100349.44
2022-11-14T19:59:15.442Z,100341.63
2022-11-14T20:01:22.002Z,100340.75
2022-11-14T20:03:23.964Z,100344.22
2022-11-14T20:05:26.067Z,100342.50
2022-11-14T20:07:28.799Z,100347.66
2022-11-14T20:09:30.950Z,100343.34
2022-11-14T20:11:33.565Z,100346.81
2022-11-14T20:13:38.350Z,100339.91
2022-11-14T20:15:40.545Z,100340.78
2022-11-14T20:17:42.657Z,100346.81
2022-11-14T20:19:44.679Z,100336.47
2022-11-14T20:21:46.909Z,100341.63
2022-11-14T20:23:49.359Z,100338.19
2022-11-14T20:25:56.170Z,100339.91
2022-11-14T20:27:58.257Z,100335.59
2022-11-14T20:30:00.253Z,100332.16
2022-11-14T20:32:03.533Z,100331.31
2022-11-14T20:34:05.656Z,100335.59
2022-11-14T20:36:11.327Z,100341.66
2022-11-14T20:38:13.348Z,100333.03
2022-11-14T20:40:15.623Z,100340.78
2022-11-14T20:42:20.527Z,100338.19
2022-11-14T20:44:22.842Z,100340.78
2022-11-14T20:46:24.974Z,100345.94
2022-11-14T20:48:29.789Z,100334.75
2022-11-14T20:50:31.552Z,100334.75
2022-11-14T20:52:33.255Z,100339.91
2022-11-14T20:54:34.923Z,100331.31
2022-11-14T20:56:38.176Z,100332.16
2022-11-14T20:58:43.892Z,100331.31
2022-11-14T21:00:45.601Z,100329.56
2022-11-14T21:02:49.055Z,100329.56
2022-11-14T21:04:50.860Z,100326.97
2022-11-14T21:06:52.709Z,100320.06
2022-11-14T21:08:54.616Z,100329.59
2022-11-14T21:11:02.403Z,100332.16
2022-11-14T21:13:26.830Z,100329.56
2022-11-14T21:15:28.442Z,100328.69
2022-11-14T21:17:31.722Z,100325.28
2022-11-14T21:19:33.431Z,100323.53
2022-11-14T21:21:37.592Z,100327.81
2022-11-14T21:23:39.684Z,100323.53
2022-11-14T21:25:41.802Z,100318.34
2022-11-14T21:27:44.766Z,100337.34
2022-11-14T21:29:46.611Z,100326.97
2022-11-14T21:31:48.403Z,100330.41
2022-11-14T21:33:52.685Z,100326.97
2022-11-14T21:35:55.076Z,100322.66
2022-11-14T21:37:56.704Z,100327.84
2022-11-14T21:39:58.609Z,100328.72
2022-11-14T21:42:00.236Z,100334.75
2022-11-14T21:44:03.619Z,100332.16
2022-11-14T21:46:07.335Z,100336.44
2022-11-14T21:48:09.060Z,100330.41
2022-11-14T21:50:10.693Z,100329.56
2022-11-14T21:52:12.312Z,100318.34
2022-11-14T21:54:14.152Z,100322.66
2022-11-14T21:56:22.381Z,100331.28
2022-11-14T21:58:24.048Z,100343.31
2022-11-14T22:00:25.805Z,100327.78
2022-11-14T22:02:50.176Z,100325.19
2022-11-14T22:04:51.817Z,100331.25
2022-11-14T22:06:54.390Z,100344.13
2022-11-14T22:08:56.141Z,100335.50
2022-11-14T22:11:01.435Z,100325.19
2022-11-14T22:13:03.091Z,100332.03
2022-11-14T22:15:05.284Z,100334.63
2022-11-14T22:17:06.973Z,100330.25
2022-11-14T22:19:08.651Z,100322.47
2022-11-14T22:21:10.673Z,100330.25
2022-11-14T22:23:12.383Z,100332.00
2022-11-14T22:25:14.493Z,100330.28
2022-11-14T22:27:16.133Z,100334.50
2022-11-14T22:29:17.798Z,100336.25
2022-11-14T22:31:24.058Z,100339.69
2022-11-14T22:33:25.716Z,100341.38
2022-11-14T22:35:27.583Z,100347.34
2022-11-14T22:37:29.486Z,100342.22
2022-11-14T22:39:31.215Z,100344.69
2022-11-14T22:41:33.837Z,100339.59
2022-11-14T22:43:35.659Z,100346.47
2022-11-14T22:45:37.329Z,100336.97
2022-11-14T22:47:38.992Z,100339.59
2022-11-14T22:49:40.674Z,100339.59
2022-11-14T22:51:42.324Z,100326.69
2022-11-14T22:53:48.243Z,100336.09
2022-11-14T22:55:49.958Z,100328.41
2022-11-14T22:57:51.682Z,100330.94
2022-11-14T22:59:53.669Z,100322.31
2022-11-14T23:01:56.901Z,100322.31
2022-11-14T23:04:01.609Z,100318.81
2022-11-14T23:06:14.127Z,100319.69
2022-11-14T23:08:17.895Z,100322.25
2022-11-14T23:10:19.734Z,100315.34
2022-11-14T23:12:21.728Z,100316.13
2022-11-14T23:14:23.389Z,100323.88
2022-11-14T23:16:31.100Z,100322.13
2022-11-14T23:18:32.830Z,100314.34
2022-11-14T23:20:36.135Z,100313.47
2022-11-14T23:22:40.619Z,100311.75
2022-11-14T23:24:42.742Z,100307.41
2022-11-14T23:26:44.838Z,100312.66
2022-11-14T23:28:46.562Z,100310.94
2022-11-14T23:30:48.284Z,100303.16
2022-11-14T23:32:50.009Z,100310.03
2022-11-14T23:34:51.713Z,100310.09
2022-11-14T23:36:53.369Z,100310.09
2022-11-14T23:38:55.104Z,100310.88
2022-11-14T23:41:01.527Z,100305.72
2022-11-14T23:43:03.384Z,100304.88
2022-11-14T23:45:05.513Z,100307.41
2022-11-14T23:47:07.225Z,100304.78
2022-11-14T23:49:08.931Z,100306.56